Time;durP1;ratioP1;P1;durP2;ratioP2;P2;SDS_P1;SDS_P2;PMS_P1;PMS_P2;Temp;Humidity;BMP_temperature;BMP_pressure;BME280_temperature;BME280_humidity;BME280_pressure;Samples;Min_cycle;Max_cycle;Signal;HPM_P1;HPM_P2
2022/10/30 00:00:38;;;;;;;10.87;5.43;;;16.70;99.90;;;;;;5099670;28;20403;-76
2022/10/30 00:03:03;;;;;;;13.93;4.80;;;16.60;99.90;;;;;;5100159;28;20411;-76
2022/10/30 00:05:29;;;;;;;11.67;4.87;;;16.60;99.90;;;;;;5100557;28;20788;-76
2022/10/30 00:07:56;;;;;;;8.67;4.10;;;16.60;99.90;;;;;;5100308;28;20170;-76
2022/10/30 00:10:21;;;;;;;10.27;4.03;;;16.60;99.90;;;;;;5099164;28;20189;-77
2022/10/30 00:12:47;;;;;;;11.03;4.67;;;16.70;99.90;;;;;;5116425;28;20410;-75
2022/10/30 00:15:13;;;;;;;13.50;4.57;;;16.70;99.90;;;;;;5121410;28;20188;-76
2022/10/30 00:17:38;;;;;;;10.73;4.90;;;16.70;99.90;;;;;;5117223;28;20173;-76
2022/10/30 00:20:05;;;;;;;10.03;4.43;;;16.70;99.90;;;;;;5113458;28;20208;-76
2022/10/30 00:22:30;;;;;;;7.27;4.63;;;16.60;99.90;;;;;;5116203;28;20176;-76
2022/10/30 00:24:56;;;;;;;9.13;4.73;;;16.60;99.90;;;;;;5117090;28;20916;-76
2022/10/30 00:27:21;;;;;;;13.93;4.50;;;16.50;99.90;;;;;;5114894;28;20518;-76
2022/10/30 00:29:47;;;;;;;11.17;4.63;;;16.60;99.90;;;;;;5115003;28;20609;-76
2022/10/30 00:32:12;;;;;;;11.60;4.57;;;16.40;99.90;;;;;;5096498;28;20172;-76
2022/10/30 00:34:38;;;;;;;8.87;4.60;;;16.50;99.90;;;;;;5114934;28;20167;-76
2022/10/30 00:37:03;;;;;;;9.93;4.87;;;16.50;99.90;;;;;;5114221;28;20298;-76
2022/10/30 00:39:29;;;;;;;9.40;5.00;;;16.60;99.90;;;;;;5114934;28;20168;-76
2022/10/30 00:41:54;;;;;;;13.00;4.97;;;16.50;99.90;;;;;;5092156;28;20173;-76
2022/10/30 00:44:46;;;;;;;17.87;5.47;;;16.50;99.90;;;;;;5075693;28;20173;-76
2022/10/30 00:47:24;;;;;;;8.20;4.10;;;16.40;99.90;;;;;;5074239;28;20220;-77
2022/10/30 00:49:58;;;;;;;13.50;4.70;;;16.40;99.90;;;;;;5079588;28;20535;-77
2022/10/30 00:52:27;;;;;;;10.80;4.57;;;16.60;99.90;;;;;;5114501;28;20391;-77
2022/10/30 00:54:55;;;;;;;12.20;5.00;;;16.60;99.90;;;;;;5114336;28;20414;-75
2022/10/30 00:57:21;;;;;;;7.57;4.87;;;16.60;99.90;;;;;;5114388;28;20881;-75
2022/10/30 00:59:47;;;;;;;8.47;4.10;;;16.60;99.90;;;;;;5114512;28;20398;-76
2022/10/30 01:02:13;;;;;;;8.03;4.37;;;16.70;99.90;;;;;;5114503;28;20417;-76
2022/10/30 01:04:40;;;;;;;9.03;4.43;;;16.60;99.90;;;;;;5114310;28;20670;-75
2022/10/30 01:07:11;;;;;;;10.80;4.93;;;16.70;99.90;;;;;;5113875;28;20475;-76
2022/10/30 01:09:38;;;;;;;9.27;4.50;;;16.70;99.90;;;;;;5096252;28;20470;-75
2022/10/30 01:12:04;;;;;;;6.80;4.03;;;16.60;99.90;;;;;;5113951;28;20436;-76
2022/10/30 01:14:32;;;;;;;13.60;4.50;;;16.60;99.90;;;;;;5113906;28;20402;-76
2022/10/30 01:17:21;;;;;;;7.40;4.20;;;16.70;99.90;;;;;;5113955;28;20943;-74
2022/10/30 01:20:07;;;;;;;11.00;4.87;;;16.70;99.90;;;;;;5113816;28;20497;-75
2022/10/30 01:22:42;;;;;;;7.10;3.97;;;16.70;99.90;;;;;;5113719;28;20948;-75
2022/10/30 01:25:46;;;;;;;11.27;4.90;;;16.60;99.90;;;;;;5095563;28;20429;-75
2022/10/30 01:28:34;;;;;;;8.17;3.90;;;16.60;99.90;;;;;;5114048;28;20856;-75
2022/10/30 01:31:15;;;;;;;10.33;5.27;;;16.60;99.90;;;;;;5113361;28;20441;-75
2022/10/30 01:33:52;;;;;;;11.13;5.00;;;16.50;99.90;;;;;;5113693;28;20398;-75
2022/10/30 01:36:42;;;;;;;7.57;4.70;;;16.20;99.90;;;;;;5113106;28;20487;-75
2022/10/30 01:39:36;;;;;;;15.10;6.00;;;16.10;99.90;;;;;;5113974;28;20473;-75
2022/10/30 01:42:44;;;;;;;9.23;5.67;;;15.90;99.90;;;;;;5091598;28;20422;-75
2022/10/30 01:45:16;;;;;;;8.90;5.50;;;16.20;99.90;;;;;;5086267;28;20495;-75
2022/10/30 01:47:47;;;;;;;8.00;5.27;;;16.30;99.90;;;;;;5112209;28;20465;-75
2022/10/30 01:50:16;;;;;;;10.60;5.67;;;16.40;99.90;;;;;;5113485;28;21004;-74
2022/10/30 01:53:16;;;;;;;11.33;5.90;;;16.50;99.90;;;;;;5095053;28;20876;-75
2022/10/30 01:55:55;;;;;;;10.97;6.20;;;16.60;99.90;;;;;;5082319;28;20812;-76
2022/10/30 01:58:39;;;;;;;12.63;6.10;;;16.60;99.90;;;;;;5093233;28;20380;-75
2022/10/30 02:01:05;;;;;;;9.07;6.57;;;16.50;99.90;;;;;;5093078;28;20961;-75
2022/10/30 02:03:31;;;;;;;12.23;6.07;;;16.50;99.90;;;;;;5092920;28;20501;-74
2022/10/30 02:05:56;;;;;;;12.20;5.40;;;16.50;99.90;;;;;;5092693;28;20192;-74
2022/10/30 02:08:22;;;;;;;8.77;5.93;;;16.30;99.90;;;;;;5092949;28;20170;-74
2022/10/30 02:10:50;;;;;;;11.80;6.20;;;16.30;99.90;;;;;;5093232;28;20194;-74
2022/10/30 02:13:17;;;;;;;9.90;5.40;;;16.40;99.90;;;;;;5093254;28;20588;-74
2022/10/30 02:15:46;;;;;;;8.53;5.80;;;16.40;99.90;;;;;;5092859;28;20471;-75
2022/10/30 02:18:11;;;;;;;12.40;6.23;;;16.30;99.90;;;;;;5105089;28;20421;-75
2022/10/30 02:20:37;;;;;;;9.67;5.87;;;16.30;99.90;;;;;;5112353;28;20507;-75
2022/10/30 02:23:04;;;;;;;13.87;5.47;;;16.30;99.90;;;;;;5112897;28;20179;-76
2022/10/30 02:25:29;;;;;;;6.57;5.10;;;16.40;99.90;;;;;;5113640;28;20438;-75
2022/10/30 02:27:55;;;;;;;9.53;5.60;;;16.40;99.90;;;;;;5095225;28;20464;-75
2022/10/30 02:30:20;;;;;;;7.37;5.30;;;16.40;99.90;;;;;;5113551;28;20192;-75
2022/10/30 02:32:46;;;;;;;10.50;5.83;;;16.40;99.90;;;;;;5113189;28;20253;-76
2022/10/30 02:35:12;;;;;;;11.47;5.77;;;16.30;99.90;;;;;;5113035;28;20176;-74
2022/10/30 02:37:38;;;;;;;12.40;4.90;;;16.20;99.90;;;;;;5094540;28;20283;-75
2022/10/30 02:40:07;;;;;;;13.20;5.73;;;16.20;99.90;;;;;;5095075;28;20168;-76
2022/10/30 02:42:33;;;;;;;7.20;4.40;;;16.00;99.90;;;;;;5115427;28;20410;-75
2022/10/30 02:44:58;;;;;;;11.10;5.47;;;15.90;99.90;;;;;;5118108;28;21286;-75
2022/10/30 02:47:24;;;;;;;9.90;5.03;;;16.00;99.90;;;;;;5088649;28;20430;-75
2022/10/30 02:49:49;;;;;;;12.43;6.07;;;16.00;99.90;;;;;;5086965;28;20208;-75
2022/10/30 02:52:15;;;;;;;9.43;5.40;;;16.10;99.90;;;;;;5109429;28;20232;-75
2022/10/30 02:54:41;;;;;;;10.30;5.63;;;16.10;99.90;;;;;;5116873;28;20255;-75
2022/10/30 02:57:07;;;;;;;8.73;5.20;;;16.10;99.90;;;;;;5116609;28;20165;-75
2022/10/30 02:59:33;;;;;;;9.93;5.20;;;16.10;99.90;;;;;;5116747;28;20169;-75
2022/10/30 03:01:58;;;;;;;10.73;5.23;;;16.10;99.90;;;;;;5116897;28;20405;-75
2022/10/30 03:04:24;;;;;;;8.67;5.13;;;16.10;99.90;;;;;;5116885;28;20169;-75
2022/10/30 03:06:49;;;;;;;7.87;4.90;;;16.10;99.90;;;;;;5116274;28;20594;-75
2022/10/30 03:09:15;;;;;;;14.23;5.93;;;16.10;99.90;;;;;;5098208;28;20259;-76
2022/10/30 03:11:43;;;;;;;9.03;5.47;;;16.10;99.90;;;;;;5116597;28;20198;-75
2022/10/30 03:14:08;;;;;;;10.40;5.47;;;16.00;99.90;;;;;;5117476;28;20252;-75
2022/10/30 03:16:35;;;;;;;12.57;5.07;;;16.00;99.90;;;;;;5117392;28;20438;-75
2022/10/30 03:19:02;;;;;;;9.63;5.17;;;16.00;99.90;;;;;;5116782;28;20165;-74
2022/10/30 03:21:28;;;;;;;8.53;5.10;;;16.00;99.90;;;;;;5114789;28;20476;-74
2022/10/30 03:23:53;;;;;;;8.47;5.67;;;16.00;99.90;;;;;;5116752;28;20758;-74
2022/10/30 03:26:19;;;;;;;11.60;5.80;;;15.80;99.90;;;;;;5116072;28;20427;-75
2022/10/30 03:28:45;;;;;;;8.33;5.03;;;15.70;99.90;;;;;;5115838;28;20177;-75
2022/10/30 03:31:15;;;;;;;15.37;5.10;;;15.70;99.90;;;;;;5116139;28;20656;-75
2022/10/30 03:33:41;;;;;;;8.63;4.93;;;15.70;99.90;;;;;;5095983;28;20260;-75
2022/10/30 03:36:08;;;;;;;9.53;5.70;;;15.70;99.90;;;;;;5115909;28;20503;-75
2022/10/30 03:38:34;;;;;;;10.60;5.50;;;15.80;99.90;;;;;;5115965;28;20160;-75
2022/10/30 03:41:00;;;;;;;13.53;5.40;;;15.70;99.90;;;;;;5116155;28;20757;-75
2022/10/30 03:43:25;;;;;;;10.40;5.23;;;15.60;99.90;;;;;;5115897;28;20173;-75
2022/10/30 03:45:53;;;;;;;6.10;4.80;;;15.60;99.90;;;;;;5097762;28;20212;-76
2022/10/30 03:48:21;;;;;;;12.03;5.60;;;15.60;99.90;;;;;;5115471;28;20174;-75
2022/10/30 03:50:47;;;;;;;9.10;4.50;;;15.60;99.90;;;;;;5115884;28;20811;-76
2022/10/30 03:53:13;;;;;;;7.17;5.03;;;15.50;99.90;;;;;;5115483;28;20408;-75
2022/10/30 03:55:39;;;;;;;11.13;5.50;;;15.60;99.90;;;;;;5097198;28;20249;-75
2022/10/30 03:58:05;;;;;;;10.50;6.87;;;15.50;99.90;;;;;;5115342;28;20823;-76
2022/10/30 04:00:31;;;;;;;12.60;6.10;;;15.40;99.90;;;;;;5105056;28;20402;-74
2022/10/30 04:02:57;;;;;;;11.97;5.00;;;15.40;99.90;;;;;;5099854;28;20416;-75
2022/10/30 04:05:23;;;;;;;10.90;5.97;;;15.30;99.90;;;;;;5115188;28;20438;-74
2022/10/30 04:07:58;;;;;;;11.03;5.87;;;15.30;99.90;;;;;;5115535;28;20634;-75
2022/10/30 04:10:24;;;;;;;12.90;5.53;;;15.20;99.90;;;;;;5115463;28;20969;-75
2022/10/30 04:12:51;;;;;;;10.30;5.27;;;15.10;99.90;;;;;;5097450;28;20400;-74
2022/10/30 04:15:17;;;;;;;10.30;5.07;;;15.00;99.90;;;;;;5115268;28;20423;-75
2022/10/30 04:17:50;;;;;;;10.83;5.60;;;15.00;99.90;;;;;;5114801;28;20933;-79
2022/10/30 04:20:18;;;;;;;9.33;4.67;;;14.90;99.90;;;;;;5114824;28;20410;-75
2022/10/30 04:22:45;;;;;;;11.63;5.37;;;15.00;99.90;;;;;;5095086;28;20461;-75
2022/10/30 04:25:11;;;;;;;11.63;5.00;;;15.00;99.90;;;;;;5115229;28;20430;-75
2022/10/30 04:27:41;;;;;;;15.10;5.50;;;15.10;99.90;;;;;;5096531;28;20417;-75
2022/10/30 04:30:08;;;;;;;11.30;5.70;;;15.10;99.90;;;;;;5115479;28;20441;-75
2022/10/30 04:32:33;;;;;;;9.40;5.17;;;15.10;99.90;;;;;;5116001;28;20411;-75
2022/10/30 04:34:59;;;;;;;11.20;5.47;;;15.00;99.90;;;;;;5115699;28;20507;-74
2022/10/30 04:37:24;;;;;;;7.60;5.17;;;15.10;99.90;;;;;;5114980;28;20158;-75
2022/10/30 04:39:50;;;;;;;9.07;5.27;;;15.00;99.90;;;;;;5114890;28;20172;-75
2022/10/30 04:42:16;;;;;;;8.67;4.70;;;15.10;99.90;;;;;;5114683;28;20159;-75
2022/10/30 04:44:41;;;;;;;11.73;6.67;;;15.30;99.90;;;;;;5114170;28;20817;-75
2022/10/30 04:47:07;;;;;;;9.53;5.80;;;15.20;99.90;;;;;;5096244;28;20167;-74
2022/10/30 04:49:32;;;;;;;10.17;5.33;;;15.20;99.90;;;;;;5114481;28;20172;-74
2022/10/30 04:51:58;;;;;;;8.80;6.40;;;15.20;99.90;;;;;;5113992;28;20234;-75
2022/10/30 04:54:24;;;;;;;8.67;5.67;;;15.20;99.90;;;;;;5114949;28;20190;-74
2022/10/30 04:56:49;;;;;;;9.93;6.93;;;15.20;99.90;;;;;;5114267;28;20186;-75
2022/10/30 04:59:15;;;;;;;11.33;6.60;;;15.20;99.90;;;;;;5078903;28;20176;-74
2022/10/30 05:01:40;;;;;;;10.73;6.53;;;15.20;99.90;;;;;;5114133;28;20174;-74
2022/10/30 05:04:06;;;;;;;9.80;5.87;;;15.10;99.90;;;;;;5114529;28;20202;-75
2022/10/30 05:06:32;;;;;;;13.53;6.67;;;15.10;99.90;;;;;;5113269;28;20236;-74
2022/10/30 05:08:58;;;;;;;8.17;6.27;;;15.10;99.90;;;;;;5095845;28;20648;-75
2022/10/30 05:11:23;;;;;;;14.70;7.10;;;15.10;99.90;;;;;;5114218;28;20447;-76
2022/10/30 05:13:49;;;;;;;14.13;7.30;;;15.10;99.90;;;;;;5095570;28;20182;-74
2022/10/30 05:16:14;;;;;;;12.77;7.27;;;15.00;99.90;;;;;;5114690;28;20207;-76
2022/10/30 05:18:40;;;;;;;12.93;6.70;;;14.90;99.90;;;;;;5114191;28;20160;-76
2022/10/30 05:21:06;;;;;;;19.17;6.47;;;14.90;99.90;;;;;;5113773;28;20543;-76
2022/10/30 05:23:31;;;;;;;10.30;6.70;;;14.90;99.90;;;;;;5112137;28;20184;-76
2022/10/30 05:25:59;;;;;;;10.43;6.80;;;14.90;99.90;;;;;;5113772;28;20195;-77
2022/10/30 05:28:25;;;;;;;12.13;7.10;;;14.80;99.90;;;;;;5114138;28;20162;-77
2022/10/30 05:30:54;;;;;;;9.93;7.30;;;14.70;99.90;;;;;;5095545;28;20451;-76
2022/10/30 05:33:20;;;;;;;9.30;6.40;;;14.70;99.90;;;;;;5113739;28;20191;-77
2022/10/30 05:35:45;;;;;;;10.20;6.87;;;14.80;99.90;;;;;;5114078;28;20451;-77
2022/10/30 05:38:12;;;;;;;18.00;10.50;;;14.70;99.90;;;;;;5113371;28;20166;-76
2022/10/30 05:40:38;;;;;;;13.90;9.67;;;14.60;99.90;;;;;;5103032;28;20176;-77
2022/10/30 05:43:04;;;;;;;12.40;6.33;;;14.70;99.90;;;;;;5096827;28;20433;-75
2022/10/30 05:45:30;;;;;;;12.83;8.60;;;14.70;99.90;;;;;;5092885;28;20467;-75
2022/10/30 05:47:58;;;;;;;14.63;9.00;;;14.60;99.90;;;;;;5093355;28;20411;-75
2022/10/30 05:50:25;;;;;;;18.43;11.30;;;14.50;99.90;;;;;;5075577;28;20484;-77
2022/10/30 05:53:02;;;;;;;15.77;9.80;;;14.40;99.90;;;;;;5093873;28;20460;-76
2022/10/30 05:55:28;;;;;;;10.03;6.50;;;14.60;99.90;;;;;;5093888;28;20408;-77
2022/10/30 05:57:58;;;;;;;16.40;10.23;;;14.60;99.90;;;;;;5093175;28;20837;-77
2022/10/30 06:00:25;;;;;;;10.67;9.17;;;14.50;99.90;;;;;;5093169;28;20447;-77
2022/10/30 06:02:51;;;;;;;25.93;16.40;;;14.50;99.90;;;;;;5075293;28;20930;-76
2022/10/30 06:05:17;;;;;;;20.40;13.00;;;14.50;99.90;;;;;;5064807;28;20461;-75
2022/10/30 06:07:42;;;;;;;10.97;8.70;;;14.50;99.90;;;;;;5073283;28;20190;-77
2022/10/30 06:10:08;;;;;;;15.43;8.90;;;14.50;99.90;;;;;;5072806;28;20196;-77
2022/10/30 06:12:33;;;;;;;14.83;7.90;;;14.40;99.90;;;;;;5095783;28;20173;-77
2022/10/30 06:14:59;;;;;;;11.17;7.40;;;14.40;99.90;;;;;;5113253;28;20192;-77
2022/10/30 06:17:24;;;;;;;13.50;10.17;;;14.40;99.90;;;;;;5114886;28;20167;-76
2022/10/30 06:19:50;;;;;;;11.53;7.00;;;14.30;99.90;;;;;;5117931;28;20173;-76
2022/10/30 06:22:15;;;;;;;21.57;14.60;;;14.30;99.90;;;;;;5115997;28;20180;-76
2022/10/30 06:24:41;;;;;;;16.50;10.27;;;14.40;99.90;;;;;;5117132;28;20198;-76
2022/10/30 06:27:07;;;;;;;17.97;10.30;;;14.40;99.90;;;;;;5117250;28;20702;-77
2022/10/30 06:29:32;;;;;;;14.30;7.43;;;14.40;99.90;;;;;;5117167;28;20217;-76
2022/10/30 06:31:58;;;;;;;10.83;6.60;;;14.40;99.90;;;;;;5117277;28;20194;-76
2022/10/30 06:34:24;;;;;;;15.30;6.70;;;14.40;99.90;;;;;;5117106;28;20168;-76
2022/10/30 06:36:50;;;;;;;11.83;6.20;;;14.40;99.90;;;;;;5117006;28;20533;-76
2022/10/30 06:39:15;;;;;;;9.83;5.50;;;14.40;99.90;;;;;;5116789;28;20457;-76
2022/10/30 06:41:41;;;;;;;6.63;5.00;;;14.50;99.90;;;;;;5116912;28;20176;-76
2022/10/30 06:44:06;;;;;;;9.50;6.47;;;14.50;99.90;;;;;;5117060;28;20203;-75
2022/10/30 06:46:32;;;;;;;11.67;5.87;;;14.50;99.90;;;;;;5116878;28;20202;-75
2022/10/30 06:48:58;;;;;;;9.73;5.77;;;14.50;99.90;;;;;;5116835;28;20167;-75
2022/10/30 06:51:23;;;;;;;7.53;4.80;;;14.50;99.90;;;;;;5116694;28;20184;-76
2022/10/30 06:53:49;;;;;;;13.03;6.93;;;14.50;99.90;;;;;;5116146;28;20171;-76
2022/10/30 06:56:14;;;;;;;6.50;5.00;;;14.50;99.90;;;;;;5116854;28;20239;-76
2022/10/30 06:58:41;;;;;;;8.37;5.57;;;14.60;99.90;;;;;;5116671;28;20168;-76
2022/10/30 07:01:07;;;;;;;10.20;5.43;;;14.50;99.90;;;;;;5116835;28;20177;-76
2022/10/30 07:03:33;;;;;;;11.00;5.67;;;14.60;99.90;;;;;;5117094;28;20403;-76
2022/10/30 07:05:59;;;;;;;11.33;4.93;;;14.70;99.90;;;;;;5116409;28;20524;-76
2022/10/30 07:08:25;;;;;;;8.50;4.87;;;14.70;99.90;;;;;;5116151;28;20496;-76
2022/10/30 07:10:50;;;;;;;9.27;5.23;;;14.80;99.90;;;;;;5116354;28;20191;-76
2022/10/30 07:13:16;;;;;;;7.23;4.83;;;14.90;99.90;;;;;;5116295;28;20182;-76
2022/10/30 07:15:42;;;;;;;9.57;5.47;;;14.90;99.90;;;;;;5097961;28;20187;-76
2022/10/30 07:18:09;;;;;;;7.30;4.60;;;14.90;99.90;;;;;;5116253;28;20402;-75
2022/10/30 07:20:35;;;;;;;12.70;5.70;;;15.00;99.90;;;;;;5116978;28;20644;-75
2022/10/30 07:23:01;;;;;;;10.97;6.47;;;15.00;99.90;;;;;;5114323;28;20956;-75
2022/10/30 07:25:27;;;;;;;7.90;5.60;;;15.00;99.90;;;;;;5116263;28;20421;-75
2022/10/30 07:27:54;;;;;;;10.93;6.00;;;15.10;99.90;;;;;;5116541;28;20422;-75
2022/10/30 07:30:22;;;;;;;8.97;4.60;;;15.20;99.90;;;;;;5119885;28;20190;-75
2022/10/30 07:33:02;;;;;;;7.47;5.30;;;15.30;99.90;;;;;;5099271;28;20403;-75
2022/10/30 07:35:29;;;;;;;10.37;5.30;;;15.40;99.90;;;;;;5100359;28;20437;-76
2022/10/30 07:37:55;;;;;;;10.37;5.37;;;15.40;99.90;;;;;;5116390;28;20400;-75
2022/10/30 07:40:21;;;;;;;12.70;6.07;;;15.40;99.90;;;;;;5116168;28;20464;-75
2022/10/30 07:42:47;;;;;;;6.23;4.20;;;15.40;99.90;;;;;;5097454;28;20753;-75
2022/10/30 07:45:12;;;;;;;6.73;4.83;;;15.50;99.90;;;;;;5115515;28;20442;-75
2022/10/30 07:47:44;;;;;;;6.27;5.20;;;15.60;99.90;;;;;;5115945;28;20243;-75
2022/10/30 07:50:10;;;;;;;8.00;4.60;;;15.70;99.90;;;;;;5115431;28;20292;-75
2022/10/30 07:52:36;;;;;;;9.17;4.90;;;15.90;99.90;;;;;;5114945;28;20454;-76
2022/10/30 07:55:02;;;;;;;10.00;4.73;;;15.90;99.90;;;;;;5115706;28;20463;-76
2022/10/30 07:57:40;;;;;;;10.03;4.83;;;16.10;99.90;;;;;;5115739;28;20156;-75
2022/10/30 08:00:08;;;;;;;8.40;4.57;;;16.10;99.90;;;;;;5115486;28;20478;-75
2022/10/30 08:02:34;;;;;;;8.50;4.43;;;16.20;99.90;;;;;;5115174;28;20398;-76
2022/10/30 08:04:59;;;;;;;9.53;5.50;;;16.30;99.90;;;;;;5115261;28;20426;-74
2022/10/30 08:07:32;;;;;;;5.63;4.40;;;16.40;99.90;;;;;;5107124;28;20935;-75
2022/10/30 08:09:58;;;;;;;6.77;4.53;;;16.50;99.90;;;;;;5094942;28;20307;-76
2022/10/30 08:12:25;;;;;;;5.80;4.30;;;16.60;99.90;;;;;;5095117;28;20490;-76
2022/10/30 08:14:51;;;;;;;6.80;4.13;;;16.70;99.90;;;;;;5095037;28;20177;-75
2022/10/30 08:17:16;;;;;;;9.33;4.37;;;16.80;99.90;;;;;;5094615;28;20403;-76
2022/10/30 08:19:42;;;;;;;8.07;4.47;;;16.90;99.90;;;;;;5094877;28;20457;-73
2022/10/30 08:22:10;;;;;;;11.80;4.70;;;17.10;99.90;;;;;;5095916;28;20184;-75
2022/10/30 08:24:36;;;;;;;11.30;4.90;;;17.20;99.90;;;;;;5113512;28;20283;-76
2022/10/30 08:27:03;;;;;;;11.30;5.07;;;17.10;99.90;;;;;;5114737;28;20513;-76
2022/10/30 08:29:29;;;;;;;9.60;4.40;;;17.20;99.90;;;;;;5115112;28;20657;-76
2022/10/30 08:31:54;;;;;;;8.03;4.43;;;17.30;99.90;;;;;;5096492;28;20450;-77
2022/10/30 08:34:20;;;;;;;10.60;4.80;;;17.40;99.90;;;;;;5093971;28;20434;-76
2022/10/30 08:36:50;;;;;;;4.60;4.20;;;17.50;99.90;;;;;;5077984;28;20280;-74
2022/10/30 08:39:17;;;;;;;8.83;5.63;;;17.60;99.90;;;;;;5072975;28;20174;-74
2022/10/30 08:41:42;;;;;;;9.50;5.53;;;17.60;99.90;;;;;;5082008;28;20784;-76
2022/10/30 08:44:08;;;;;;;10.90;5.50;;;17.60;99.90;;;;;;5114761;28;20414;-76
2022/10/30 08:46:34;;;;;;;12.20;5.07;;;17.70;99.90;;;;;;5114672;28;20666;-76
2022/10/30 08:49:00;;;;;;;8.57;4.60;;;17.80;99.90;;;;;;5114605;28;20255;-76
2022/10/30 08:51:25;;;;;;;7.50;4.80;;;17.90;99.90;;;;;;5114501;28;20298;-75
2022/10/30 08:53:51;;;;;;;9.40;6.03;;;17.90;99.90;;;;;;5114114;28;20463;-77
2022/10/30 08:56:17;;;;;;;12.77;5.30;;;18.00;99.90;;;;;;5114237;28;20688;-77
2022/10/30 08:58:43;;;;;;;13.73;4.67;;;18.10;99.90;;;;;;5114111;28;20634;-76
2022/10/30 09:01:08;;;;;;;11.80;5.40;;;18.10;99.90;;;;;;5114479;28;20634;-75
2022/10/30 09:03:34;;;;;;;12.67;5.90;;;18.00;99.90;;;;;;5114686;28;20277;-75
2022/10/30 09:06:00;;;;;;;11.40;6.83;;;17.90;99.90;;;;;;5114290;28;20208;-76
2022/10/30 09:08:27;;;;;;;11.00;6.47;;;17.80;99.90;;;;;;5114034;28;20169;-75
2022/10/30 09:10:57;;;;;;;10.57;6.47;;;17.80;99.90;;;;;;5114293;28;20508;-75
2022/10/30 09:13:23;;;;;;;12.80;6.73;;;17.80;99.90;;;;;;5113910;28;20418;-76
2022/10/30 09:15:49;;;;;;;12.00;6.30;;;17.90;99.90;;;;;;5113972;28;20419;-74
2022/10/30 09:18:15;;;;;;;14.90;6.80;;;18.00;99.90;;;;;;5114023;28;20397;-77
2022/10/30 09:20:41;;;;;;;17.10;6.37;;;18.10;99.90;;;;;;5095690;28;20486;-78
2022/10/30 09:23:06;;;;;;;10.70;6.70;;;18.10;99.90;;;;;;5112448;28;20212;-76
2022/10/30 09:25:32;;;;;;;10.10;6.10;;;18.30;99.90;;;;;;5113451;28;20250;-77
2022/10/30 09:27:57;;;;;;;8.63;5.80;;;18.50;99.90;;;;;;5114015;28;20178;-77
2022/10/30 09:30:23;;;;;;;10.40;6.73;;;18.50;99.90;;;;;;5114482;28;20572;-75
2022/10/30 09:33:00;;;;;;;9.60;7.00;;;18.40;99.90;;;;;;5113833;28;20570;-73
2022/10/30 09:35:27;;;;;;;9.90;6.77;;;18.50;99.90;;;;;;5114045;28;20230;-73
2022/10/30 09:37:53;;;;;;;9.67;5.90;;;18.50;99.90;;;;;;5113266;28;20402;-75
2022/10/30 09:40:59;;;;;;;7.50;6.47;;;18.60;99.90;;;;;;5113864;28;20440;-76
2022/10/30 09:43:31;;;;;;;12.17;6.53;;;18.70;99.90;;;;;;5078878;28;20406;-76
2022/10/30 09:46:18;;;;;;;13.50;6.80;;;18.70;99.90;;;;;;5113446;28;20495;-76
2022/10/30 09:48:59;;;;;;;10.50;6.00;;;18.70;99.90;;;;;;5113701;28;20378;-76
2022/10/30 09:51:30;;;;;;;13.33;6.77;;;18.80;99.90;;;;;;5113246;28;20431;-76
2022/10/30 09:54:18;;;;;;;9.60;6.13;;;18.80;99.90;;;;;;5113239;28;20438;-74
2022/10/30 09:56:53;;;;;;;10.40;6.37;;;18.90;99.90;;;;;;5113364;28;20948;-75
2022/10/30 09:59:49;;;;;;;14.73;7.50;;;19.00;99.90;;;;;;5113266;28;20940;-74
2022/10/30 10:02:20;;;;;;;10.40;6.67;;;19.10;99.90;;;;;;5113689;28;20394;-73
2022/10/30 10:04:51;;;;;;;11.63;6.60;;;19.30;99.90;;;;;;5113538;28;20948;-76
2022/10/30 10:07:31;;;;;;;9.77;6.43;;;19.40;99.90;;;;;;5113168;28;20414;-74
2022/10/30 10:10:04;;;;;;;15.60;6.50;;;19.50;99.90;;;;;;5112872;28;20943;-74
2022/10/30 10:12:39;;;;;;;9.70;6.60;;;19.70;99.90;;;;;;5113571;28;20386;-74
2022/10/30 10:15:13;;;;;;;12.50;7.40;;;19.90;99.90;;;;;;5113582;28;20809;-76
2022/10/30 10:17:42;;;;;;;8.77;6.87;;;20.10;99.90;;;;;;5102200;28;20759;-75
2022/10/30 10:20:31;;;;;;;9.50;6.37;;;20.20;99.90;;;;;;5074920;28;20898;-75
2022/10/30 10:23:00;;;;;;;10.20;6.73;;;20.30;99.90;;;;;;5096055;28;20474;-74
2022/10/30 10:25:27;;;;;;;11.13;6.00;;;20.20;99.90;;;;;;5112908;28;20418;-75
2022/10/30 10:28:02;;;;;;;8.83;6.20;;;20.20;99.90;;;;;;5113492;28;20451;-77
2022/10/30 10:30:57;;;;;;;10.73;6.07;;;20.40;99.90;;;;;;5113332;28;20422;-73
2022/10/30 10:33:51;;;;;;;10.70;5.70;;;20.70;99.90;;;;;;5112131;28;20431;-72
2022/10/30 10:36:29;;;;;;;8.73;6.20;;;21.00;99.90;;;;;;5072596;28;20458;-74
2022/10/30 10:39:01;;;;;;;9.33;6.27;;;21.30;99.90;;;;;;5072860;28;20384;-75
2022/10/30 10:41:55;;;;;;;8.90;5.63;;;21.50;99.90;;;;;;5072580;28;20384;-75
2022/10/30 10:44:52;;;;;;;9.40;5.97;;;21.50;99.90;;;;;;5072463;28;20400;-75
2022/10/30 10:47:38;;;;;;;7.70;5.40;;;21.90;99.90;;;;;;5072365;28;20442;-74
2022/10/30 10:50:17;;;;;;;7.83;5.70;;;23.60;99.90;;;;;;5072292;28;20384;-74
2022/10/30 10:52:47;;;;;;;8.47;5.30;;;26.10;99.90;;;;;;5072991;28;20894;-74
2022/10/30 10:55:16;;;;;;;9.60;5.67;;;27.80;98.90;;;;;;5072345;28;20438;-74
2022/10/30 10:57:43;;;;;;;9.00;5.93;;;29.10;96.80;;;;;;5072994;28;20408;-75
2022/10/30 11:00:22;;;;;;;10.40;5.37;;;30.70;93.30;;;;;;5102006;28;20457;-75
2022/10/30 11:02:58;;;;;;;8.27;5.67;;;32.00;90.40;;;;;;5113446;28;20412;-76
2022/10/30 11:05:30;;;;;;;10.90;5.73;;;32.80;83.20;;;;;;5097508;28;20491;-76
2022/10/30 11:08:03;;;;;;;7.77;4.80;;;33.00;83.60;;;;;;5116835;28;20780;-77
2022/10/30 11:10:29;;;;;;;8.70;5.60;;;33.80;79.80;;;;;;5115904;28;20489;-77
2022/10/30 11:12:55;;;;;;;10.60;5.00;;;34.50;75.80;;;;;;5116474;28;20437;-76
2022/10/30 11:15:27;;;;;;;8.20;5.40;;;35.20;74.50;;;;;;5117192;28;20189;-74
2022/10/30 11:17:58;;;;;;;8.30;5.23;;;35.80;70.40;;;;;;5116600;28;20183;-74
2022/10/30 11:20:56;;;;;;;6.90;5.33;;;35.30;70.10;;;;;;5116226;28;20411;-75
2022/10/30 11:23:43;;;;;;;8.93;5.00;;;35.50;67.60;;;;;;5115012;28;20437;-75
2022/10/30 11:26:17;;;;;;;6.47;5.33;;;36.00;66.50;;;;;;5107130;28;20448;-75
2022/10/30 11:28:52;;;;;;;8.73;5.17;;;36.30;65.40;;;;;;5086792;28;20399;-75
2022/10/30 11:31:33;;;;;;;7.20;5.77;;;35.70;64.60;;;;;;5095738;28;20537;-75
2022/10/30 11:34:17;;;;;;;6.37;5.23;;;36.00;67.00;;;;;;5096175;28;20379;-74
2022/10/30 11:36:48;;;;;;;9.17;5.40;;;35.40;66.60;;;;;;5110483;28;20434;-74
2022/10/30 11:39:24;;;;;;;8.50;5.40;;;36.00;64.20;;;;;;5116014;28;20395;-75
2022/10/30 11:42:14;;;;;;;10.53;5.50;;;36.20;63.30;;;;;;5115352;28;20394;-74
2022/10/30 11:44:50;;;;;;;8.53;4.90;;;36.00;62.50;;;;;;5074927;28;20381;-73
2022/10/30 11:47:20;;;;;;;7.13;5.30;;;35.80;63.20;;;;;;5075114;28;20403;-74
2022/10/30 11:49:55;;;;;;;6.40;4.80;;;35.90;64.60;;;;;;5074992;28;20384;-74
2022/10/30 11:52:23;;;;;;;8.10;5.13;;;36.00;61.30;;;;;;5075116;28;20465;-74
2022/10/30 11:55:07;;;;;;;8.67;6.03;;;35.70;62.60;;;;;;5074886;28;20479;-74
2022/10/30 11:57:45;;;;;;;8.83;5.60;;;35.30;64.60;;;;;;5074428;28;20376;-74
2022/10/30 12:00:28;;;;;;;7.97;6.13;;;34.50;67.70;;;;;;5075140;28;20389;-74
2022/10/30 12:02:56;;;;;;;7.93;5.33;;;33.70;67.80;;;;;;5075119;28;20871;-74
2022/10/30 12:05:24;;;;;;;13.50;6.20;;;32.80;71.00;;;;;;5095516;28;20431;-74
2022/10/30 12:07:51;;;;;;;11.60;6.00;;;31.90;74.70;;;;;;5097056;28;20398;-74
2022/10/30 12:10:25;;;;;;;10.33;5.87;;;30.90;77.40;;;;;;5115176;28;20812;-74
2022/10/30 12:12:51;;;;;;;9.73;5.90;;;29.80;83.10;;;;;;5114896;28;20405;-74
2022/10/30 12:15:26;;;;;;;8.23;4.90;;;29.10;87.10;;;;;;5115037;28;20419;-74
2022/10/30 12:18:00;;;;;;;11.20;5.90;;;28.40;90.80;;;;;;5096750;28;20164;-73
2022/10/30 12:20:26;;;;;;;9.00;6.23;;;28.00;92.40;;;;;;5115118;28;20391;-73
2022/10/30 12:22:52;;;;;;;9.43;6.03;;;27.70;94.00;;;;;;5105422;28;20400;-73
2022/10/30 12:25:47;;;;;;;12.73;8.10;;;27.50;95.50;;;;;;5108716;28;20515;-74
2022/10/30 12:28:19;;;;;;;11.27;7.47;;;27.20;96.70;;;;;;5112696;28;20191;-75
2022/10/30 12:31:07;;;;;;;9.20;7.40;;;27.50;97.10;;;;;;5113670;28;20450;-74
2022/10/30 12:33:45;;;;;;;8.63;6.50;;;27.90;96.90;;;;;;5115065;28;20470;-75
2022/10/30 12:36:20;;;;;;;8.87;5.67;;;28.10;96.70;;;;;;5114869;28;20415;-74
2022/10/30 12:38:58;;;;;;;7.30;5.80;;;28.30;96.30;;;;;;5114646;28;20401;-74
2022/10/30 12:41:35;;;;;;;8.63;5.50;;;28.80;96.50;;;;;;5115037;28;20899;-75
2022/10/30 12:44:09;;;;;;;7.43;5.13;;;29.00;95.80;;;;;;5115080;28;20754;-74
2022/10/30 12:46:57;;;;;;;7.27;5.63;;;29.10;95.40;;;;;;5114582;28;20526;-73
2022/10/30 12:49:53;;;;;;;10.47;5.37;;;29.10;95.50;;;;;;5114652;28;20888;-74
2022/10/30 12:52:27;;;;;;;8.03;5.30;;;29.00;95.80;;;;;;5115649;28;20438;-74
2022/10/30 12:55:08;;;;;;;9.10;5.20;;;28.70;96.20;;;;;;5114730;28;20382;-74